Viola, Arkansas
Current Conditions -  °F | °C
As of 3:53 AM on Monday 22 Dec 2014 (Local Time) from KBPK Reporting Station
Overcast Overcast  
Wind Chill: 41°   Ceiling: 1900
Heat Index: 44°   Visibility: 10mi
Dew Point: 37°   Wind: 6mph
Humidity: 76%   Direction: 150°SSE
Pressure: 29.73"   Gusts: NA
Location:  36.4°N, 91.98°W
Report Text: KBPK 220953Z AUTO 15005KT 10SM OVC019 07/03 A2973 RMK AO2 SLP067 T00670028
Loading
Personal Weather Stations






























Interactive Weather Map New forecast layout! Learn more

10-Day Weather Forecast

Advertisements
Track Severe Weather on mobile